Time;durP1;ratioP1;P1;durP2;ratioP2;P2;SDS_P1;SDS_P2;PMS_P1;PMS_P2;Temp;Humidity;BMP_temperature;BMP_pressure;BME280_temperature;BME280_humidity;BME280_pressure;Samples;Min_cycle;Max_cycle;Signal;HPM_P1;HPM_P2
2023/04/09 00:02:09;;;;;;;39.70;27.70;;;;;;;5.60;83.98;99478.34;222005;1293;22560;-85
2023/04/09 00:07:11;;;;;;;33.50;24.30;;;;;;;5.62;84.08;99473.27;222161;1300;22546;-85
2023/04/09 00:12:13;;;;;;;46.80;30.00;;;;;;;5.62;84.01;99458.09;222174;1301;22618;-82
2023/04/09 00:17:15;;;;;;;40.40;28.20;;;;;;;5.57;83.76;99431.30;222439;1299;22654;-84
2023/04/09 00:22:17;;;;;;;39.90;27.10;;;;;;;5.49;84.21;99430.45;222136;1301;22726;-85
2023/04/09 00:27:19;;;;;;;38.10;27.20;;;;;;;5.43;84.28;99435.52;222186;1299;22658;-83
2023/04/09 00:32:21;;;;;;;35.80;26.70;;;;;;;5.37;84.27;99435.09;222190;1299;22565;-84
2023/04/09 00:37:24;;;;;;;35.20;26.60;;;;;;;5.29;84.38;99435.44;222168;1301;22546;-85
2023/04/09 00:42:26;;;;;;;36.40;25.60;;;;;;;5.21;84.58;99440.00;222045;1301;22536;-85
2023/04/09 00:47:29;;;;;;;37.60;26.70;;;;;;;5.14;84.65;99437.83;222188;1299;22549;-83
2023/04/09 00:52:32;;;;;;;36.50;26.50;;;;;;;5.09;84.79;99436.41;222185;1298;22635;-83
2023/04/09 00:57:35;;;;;;;38.50;27.60;;;;;;;5.06;84.67;99438.95;222130;1301;22949;-85
2023/04/09 01:02:37;;;;;;;41.20;30.00;;;;;;;5.03;84.98;99438.63;221934;1299;22549;-84
2023/04/09 01:08:09;;;;;;;49.20;31.90;;;;;;;5.01;85.08;99440.23;222152;1299;25321;-83
2023/04/09 01:13:22;;;;;;;46.80;32.30;;;;;;;5.00;85.28;99445.21;222149;1299;22553;-83
2023/04/09 01:18:31;;;;;;;39.80;29.60;;;;;;;5.01;85.32;99452.48;222488;1301;22582;-84
2023/04/09 01:24:00;;;;;;;44.80;30.00;;;;;;;5.03;85.49;99451.23;222171;1285;22550;-84
2023/04/09 01:29:17;;;;;;;44.30;31.00;;;;;;;5.06;85.56;99462.50;222176;1299;23788;-81
2023/04/09 01:34:19;;;;;;;47.40;32.80;;;;;;;5.08;85.55;99464.05;222174;1300;22552;-83
2023/04/09 01:39:22;;;;;;;47.70;31.20;;;;;;;5.09;85.51;99466.40;222449;1278;22675;-82
2023/04/09 01:44:26;;;;;;;42.80;29.70;;;;;;;5.09;85.56;99458.73;222179;1296;22553;-84
2023/04/09 01:49:29;;;;;;;46.20;33.00;;;;;;;5.08;85.66;99459.81;221943;1301;22583;-81
2023/04/09 01:54:32;;;;;;;47.10;32.10;;;;;;;5.10;85.66;99460.59;222484;1297;23055;-83
2023/04/09 01:59:34;;;;;;;49.50;33.70;;;;;;;5.10;85.78;99464.92;222174;1296;22579;-82
2023/04/09 02:04:42;;;;;;;50.40;34.10;;;;;;;5.10;85.81;99467.89;222147;1301;22566;-84
2023/04/09 02:09:46;;;;;;;51.10;35.30;;;;;;;5.10;85.93;99465.11;222177;1301;22570;-84
2023/04/09 02:14:51;;;;;;;51.20;33.60;;;;;;;5.10;85.81;99463.48;222191;1301;22685;-85
2023/04/09 02:19:54;;;;;;;52.00;35.50;;;;;;;5.13;86.01;99463.79;222164;1301;22550;-83
2023/04/09 02:24:56;;;;;;;49.00;33.70;;;;;;;5.16;86.11;99464.36;222193;1299;22566;-82
2023/04/09 02:29:58;;;;;;;50.30;35.10;;;;;;;5.18;86.00;99468.41;222131;1301;22561;-83
2023/04/09 02:35:00;;;;;;;52.10;35.60;;;;;;;5.19;86.15;99465.52;222207;1296;22553;-84
2023/04/09 02:40:03;;;;;;;51.10;34.70;;;;;;;5.19;85.92;99461.00;222175;1299;22565;-84
2023/04/09 02:45:06;;;;;;;48.50;34.50;;;;;;;5.17;86.09;99457.98;222153;1296;26625;-84
2023/04/09 02:50:08;;;;;;;52.40;34.20;;;;;;;5.14;86.17;99454.20;222204;1299;24297;-84
2023/04/09 02:55:14;;;;;;;57.90;36.90;;;;;;;5.12;86.26;99453.41;222166;1299;22557;-85
2023/04/09 03:00:16;;;;;;;54.10;35.70;;;;;;;5.10;86.48;99453.37;221842;1301;22554;-84
2023/04/09 03:05:18;;;;;;;56.90;37.40;;;;;;;5.07;86.38;99455.86;222171;1300;22554;-84
2023/04/09 03:10:20;;;;;;;55.30;36.60;;;;;;;5.04;86.36;99457.74;222168;1299;24278;-83
2023/04/09 03:15:22;;;;;;;57.60;37.80;;;;;;;5.03;86.59;99456.70;222166;1300;22553;-85
2023/04/09 03:20:24;;;;;;;53.20;36.30;;;;;;;5.01;86.82;99458.71;222138;1301;22591;-84
2023/04/09 03:25:27;;;;;;;56.80;36.70;;;;;;;5.02;87.01;99458.66;222168;1296;23616;-85
2023/04/09 03:30:30;;;;;;;57.60;37.20;;;;;;;5.02;86.67;99458.36;222142;1299;22587;-85
2023/04/09 03:35:32;;;;;;;53.50;36.10;;;;;;;5.01;86.97;99460.84;222190;1301;22546;-84
2023/04/09 03:40:37;;;;;;;64.60;39.80;;;;;;;5.00;86.88;99460.73;222143;1290;22487;-84
2023/04/09 03:45:39;;;;;;;60.20;38.10;;;;;;;5.02;86.87;99458.36;222188;1299;23363;-83
2023/04/09 03:50:52;;;;;;;58.60;38.20;;;;;;;5.02;87.22;99459.52;222477;1299;25442;-84
2023/04/09 03:56:02;;;;;;;61.80;39.70;;;;;;;5.00;87.23;99459.54;222172;1301;22607;-85
2023/04/09 04:01:05;;;;;;;56.60;36.70;;;;;;;4.97;87.14;99462.77;222172;1299;25293;-86
2023/04/09 04:06:17;;;;;;;55.60;36.30;;;;;;;4.90;87.13;99460.56;222162;1301;22599;-86
2023/04/09 04:11:45;;;;;;;59.70;37.00;;;;;;;4.83;87.08;99454.60;222265;1301;22577;-85
2023/04/09 04:16:48;;;;;;;58.40;36.50;;;;;;;4.81;87.32;99457.56;222168;1299;22553;-84
2023/04/09 04:21:52;;;;;;;53.90;35.60;;;;;;;4.80;87.16;99455.71;222373;1290;22565;-83
2023/04/09 04:26:55;;;;;;;54.70;35.40;;;;;;;4.76;87.25;99458.45;222467;1299;22636;-84
2023/04/09 04:31:59;;;;;;;60.30;37.60;;;;;;;4.76;87.27;99457.98;222202;1298;22575;-84
2023/04/09 04:37:06;;;;;;;59.00;37.60;;;;;;;4.80;87.72;99467.90;222430;1301;22573;-85
2023/04/09 04:42:08;;;;;;;55.00;34.90;;;;;;;4.89;87.81;99481.23;222158;1301;22550;-85
2023/04/09 04:47:11;;;;;;;55.20;35.00;;;;;;;5.00;87.90;99484.98;222131;1301;22661;-84
2023/04/09 04:52:13;;;;;;;51.60;34.60;;;;;;;5.11;87.84;99485.56;222077;1301;22552;-83
2023/04/09 04:57:20;;;;;;;48.00;32.80;;;;;;;5.25;87.53;99482.74;222188;1299;22569;-84
2023/04/09 05:02:22;;;;;;;50.50;34.20;;;;;;;5.35;87.47;99480.98;222461;1299;24227;-81
2023/04/09 05:07:47;;;;;;;52.40;35.60;;;;;;;5.48;87.21;99476.90;222165;1301;22546;-85
2023/04/09 05:12:49;;;;;;;44.60;32.00;;;;;;;5.56;87.26;99475.91;222241;1301;24243;-82
2023/04/09 05:17:59;;;;;;;44.90;32.50;;;;;;;5.63;87.35;99472.65;222231;1299;22568;-85
2023/04/09 05:23:02;;;;;;;50.00;33.10;;;;;;;5.73;87.25;99473.22;222143;1301;24240;-85
2023/04/09 05:28:10;;;;;;;50.40;34.00;;;;;;;5.85;87.07;99477.13;222190;1297;22600;-84
2023/04/09 05:33:14;;;;;;;48.30;32.80;;;;;;;6.02;87.24;99480.42;222141;1301;22581;-85
2023/04/09 05:38:17;;;;;;;49.40;33.00;;;;;;;6.17;87.01;99487.15;222523;1299;22645;-84
2023/04/09 05:43:20;;;;;;;49.00;32.70;;;;;;;6.26;87.23;99491.70;222196;1299;25443;-84
2023/04/09 05:48:23;;;;;;;49.20;33.60;;;;;;;6.38;86.83;99492.51;222060;1300;22549;-84
2023/04/09 05:53:28;;;;;;;47.90;34.40;;;;;;;6.49;86.99;99494.13;221873;1301;22611;-83
2023/04/09 05:58:31;;;;;;;49.70;33.20;;;;;;;6.59;86.65;99499.59;221891;1301;22571;-83
2023/04/09 06:03:33;;;;;;;48.30;34.30;;;;;;;6.64;86.47;99504.23;222192;1297;22542;-83
2023/04/09 06:08:36;;;;;;;49.80;34.10;;;;;;;6.68;86.48;99514.31;222174;1301;22578;-85
2023/04/09 06:13:39;;;;;;;47.70;34.60;;;;;;;6.78;86.33;99515.88;222193;1292;24189;-85
2023/04/09 06:18:41;;;;;;;53.40;38.10;;;;;;;6.90;86.48;99520.45;221988;1299;22553;-84
2023/04/09 06:23:43;;;;;;;54.00;39.60;;;;;;;6.89;85.61;99521.98;222178;1298;22563;-84
2023/04/09 06:28:46;;;;;;;53.50;38.70;;;;;;;6.89;85.63;99523.67;222212;1301;22582;-84
2023/04/09 06:33:49;;;;;;;55.10;39.60;;;;;;;6.88;85.37;99528.37;222240;1301;25322;-84
2023/04/09 06:38:52;;;;;;;57.90;39.20;;;;;;;6.82;85.32;99528.42;221996;1301;22560;-85
2023/04/09 06:43:54;;;;;;;52.90;38.20;;;;;;;6.88;85.52;99533.63;222537;1301;22579;-88
2023/04/09 06:48:57;;;;;;;52.70;37.20;;;;;;;6.94;85.25;99537.09;222223;1301;22549;-84
2023/04/09 06:53:59;;;;;;;56.90;40.00;;;;;;;6.99;85.33;99537.30;222294;1292;22556;-84
2023/04/09 06:59:05;;;;;;;51.80;35.90;;;;;;;7.03;85.15;99538.94;222514;1301;22563;-85
2023/04/09 07:04:08;;;;;;;49.40;35.70;;;;;;;7.10;84.90;99543.63;222178;1301;24301;-84
2023/04/09 07:09:10;;;;;;;51.70;35.90;;;;;;;7.24;85.21;99545.41;222181;1301;25329;-84
2023/04/09 07:14:12;;;;;;;47.60;33.90;;;;;;;7.41;85.46;99544.21;222147;1301;23799;-84
2023/04/09 07:19:15;;;;;;;51.70;36.80;;;;;;;7.51;85.18;99548.85;222481;1299;22554;-85
2023/04/09 07:24:17;;;;;;;47.20;34.30;;;;;;;7.59;84.62;99549.96;222181;1301;24347;-84
2023/04/09 07:29:21;;;;;;;51.20;35.40;;;;;;;7.58;84.36;99547.00;222217;1301;22550;-82
2023/04/09 07:34:25;;;;;;;48.10;34.80;;;;;;;7.61;84.57;99550.84;222177;1301;22574;-85
2023/04/09 07:39:27;;;;;;;49.80;36.80;;;;;;;7.71;84.56;99550.42;222420;1282;22572;-83
2023/04/09 07:44:35;;;;;;;48.70;35.00;;;;;;;7.98;84.86;99552.06;222487;1299;22978;-86
2023/04/09 07:49:37;;;;;;;48.60;35.40;;;;;;;8.30;84.87;99550.48;222028;1301;22566;-84
2023/04/09 07:54:40;;;;;;;46.40;33.00;;;;;;;8.54;84.49;99553.46;222160;1301;22579;-84
2023/04/09 07:59:43;;;;;;;45.40;34.20;;;;;;;8.72;84.14;99552.11;221988;1289;22567;-85
2023/04/09 08:04:46;;;;;;;45.80;33.50;;;;;;;8.93;83.79;99555.94;221870;1300;23688;-85
2023/04/09 08:09:48;;;;;;;43.70;33.00;;;;;;;9.05;83.49;99559.84;221984;1301;22586;-85
2023/04/09 08:14:50;;;;;;;46.40;34.70;;;;;;;9.14;83.21;99556.22;222296;1296;22566;-84
2023/04/09 08:19:52;;;;;;;41.30;32.20;;;;;;;9.21;83.24;99552.47;222047;1301;22550;-84
2023/04/09 08:24:56;;;;;;;40.60;32.20;;;;;;;9.12;82.09;99559.77;222169;1301;22561;-84
2023/04/09 08:30:05;;;;;;;42.60;32.70;;;;;;;9.02;82.65;99556.91;222504;1301;22604;-85
2023/04/09 08:35:08;;;;;;;42.00;31.40;;;;;;;9.01;82.35;99561.70;222180;1301;22548;-85
2023/04/09 08:40:12;;;;;;;45.10;32.30;;;;;;;8.99;82.38;99564.73;222038;1300;22564;-82
2023/04/09 08:45:15;;;;;;;48.00;35.70;;;;;;;8.97;82.47;99566.13;222067;1301;22561;-84
2023/04/09 08:50:19;;;;;;;50.30;36.80;;;;;;;9.01;82.75;99564.30;222151;1301;22674;-84
2023/04/09 08:55:22;;;;;;;52.70;36.80;;;;;;;9.06;82.35;99562.66;222026;1301;22550;-83
2023/04/09 09:00:25;;;;;;;54.10;37.30;;;;;;;9.10;82.42;99566.80;222237;1301;22546;-83
2023/04/09 09:05:45;;;;;;;51.90;37.30;;;;;;;9.21;82.22;99572.88;222199;1301;22597;-84
2023/04/09 09:10:49;;;;;;;53.40;38.20;;;;;;;9.33;82.15;99572.66;222280;1299;22569;-84
2023/04/09 09:15:55;;;;;;;51.80;37.60;;;;;;;9.44;82.07;99567.52;222169;1301;22533;-84
2023/04/09 09:21:11;;;;;;;54.40;38.80;;;;;;;9.63;82.00;99573.71;222193;1301;22546;-84
2023/04/09 09:26:15;;;;;;;55.70;39.50;;;;;;;9.80;81.79;99576.60;221881;1303;22578;-84
2023/04/09 09:31:20;;;;;;;54.00;39.30;;;;;;;9.89;81.45;99579.92;221886;1287;22574;-83
2023/04/09 09:36:34;;;;;;;50.80;38.40;;;;;;;9.99;80.81;99581.70;222338;1301;22560;-84
2023/04/09 09:41:38;;;;;;;52.70;38.60;;;;;;;10.10;80.74;99576.00;222253;1290;22561;-84
2023/04/09 09:46:41;;;;;;;51.10;37.30;;;;;;;10.24;80.37;99576.88;222243;1301;22593;-84
2023/04/09 09:51:53;;;;;;;53.10;38.40;;;;;;;10.25;79.93;99575.81;221940;1301;22484;-83
2023/04/09 09:57:03;;;;;;;53.50;39.50;;;;;;;10.31;79.99;99575.23;222278;1301;22558;-84
2023/04/09 10:02:20;;;;;;;55.00;39.70;;;;;;;10.36;79.82;99567.60;222175;1301;22567;-84
2023/04/09 10:07:23;;;;;;;54.40;39.00;;;;;;;10.35;79.66;99567.80;222019;1301;25363;-83
2023/04/09 10:12:27;;;;;;;53.80;38.90;;;;;;;10.47;79.71;99567.45;222034;1301;22814;-79
2023/04/09 10:17:33;;;;;;;55.50;39.30;;;;;;;10.62;79.97;99564.09;222245;1285;24450;-83
2023/04/09 10:22:35;;;;;;;53.10;39.80;;;;;;;10.68;79.45;99568.33;222008;1299;288998;-84
2023/04/09 10:27:38;;;;;;;51.60;38.60;;;;;;;10.73;79.05;99563.35;222364;1296;22598;-83
2023/04/09 10:32:42;;;;;;;51.50;37.90;;;;;;;10.75;78.94;99562.55;222275;1278;22567;-83
2023/04/09 10:37:49;;;;;;;52.50;39.70;;;;;;;10.83;78.94;99557.61;222156;1301;23339;-84
2023/04/09 10:42:54;;;;;;;52.20;38.60;;;;;;;10.88;78.65;99552.27;222116;1292;22645;-84
2023/04/09 10:48:02;;;;;;;54.90;39.50;;;;;;;10.81;78.50;99550.48;222292;1298;22594;-83
2023/04/09 10:53:05;;;;;;;51.20;37.60;;;;;;;10.79;78.84;99551.79;222253;1301;22560;-85
2023/04/09 10:58:11;;;;;;;54.10;38.20;;;;;;;10.67;78.34;99547.83;222175;1301;24293;-84
2023/04/09 11:03:31;;;;;;;52.50;38.70;;;;;;;10.65;78.63;99547.00;221961;1301;24319;-84
2023/04/09 11:08:37;;;;;;;94.50;69.10;;;;;;;10.74;78.71;99545.77;222305;1298;22549;-82
2023/04/09 11:13:40;;;;;;;51.20;37.40;;;;;;;10.89;78.66;99547.52;222059;1301;22564;-84
2023/04/09 11:18:43;;;;;;;52.20;38.80;;;;;;;11.05;78.51;99545.98;221991;1301;22575;-85
2023/04/09 11:23:52;;;;;;;52.80;37.40;;;;;;;11.14;78.14;99541.94;222165;1299;22545;-83
2023/04/09 11:28:56;;;;;;;53.30;39.80;;;;;;;11.18;77.85;99542.42;222097;1300;22586;-83
2023/04/09 11:33:59;;;;;;;51.20;38.80;;;;;;;11.27;77.79;99542.31;222208;1299;22594;-83
2023/04/09 11:39:02;;;;;;;50.90;38.40;;;;;;;11.36;77.60;99540.42;222290;1300;22556;-84
2023/04/09 11:44:07;;;;;;;49.60;37.30;;;;;;;11.42;77.15;99544.48;222165;1301;22654;-83
2023/04/09 11:49:09;;;;;;;46.40;34.20;;;;;;;11.51;77.14;99543.64;222122;1301;22561;-84
2023/04/09 11:54:11;;;;;;;48.90;36.80;;;;;;;11.55;76.79;99538.84;222227;1301;22807;-82
2023/04/09 11:59:14;;;;;;;48.80;36.10;;;;;;;11.69;76.82;99545.92;222152;1301;22563;-85
2023/04/09 12:04:20;;;;;;;47.50;37.00;;;;;;;11.87;76.76;99545.66;221815;1301;22619;-84
2023/04/09 12:09:23;;;;;;;46.70;35.30;;;;;;;12.01;76.37;99540.48;222203;1301;22585;-84
2023/04/09 12:14:28;;;;;;;44.10;34.90;;;;;;;12.27;76.46;99543.56;222266;1299;22850;-85
2023/04/09 12:19:30;;;;;;;42.20;33.70;;;;;;;12.52;75.88;99542.99;222325;1299;24350;-84
2023/04/09 12:24:32;;;;;;;46.20;35.90;;;;;;;12.63;75.47;99541.47;222226;1296;22917;-82
2023/04/09 12:29:34;;;;;;;40.60;32.90;;;;;;;12.69;75.04;99543.16;222288;1296;23301;-83
2023/04/09 12:34:37;;;;;;;37.70;31.20;;;;;;;12.81;74.90;99542.06;222177;1287;22638;-85
2023/04/09 12:39:39;;;;;;;37.50;31.00;;;;;;;12.90;74.53;99535.70;222028;1301;22552;-82
2023/04/09 12:44:41;;;;;;;37.40;30.60;;;;;;;13.08;74.24;99535.35;222121;1301;22556;-84
2023/04/09 12:49:45;;;;;;;34.50;29.00;;;;;;;13.24;74.07;99530.64;222221;1301;24370;-82
2023/04/09 12:54:47;;;;;;;32.80;26.90;;;;;;;13.36;73.47;99526.23;222265;1301;22623;-83
2023/04/09 13:00:14;;;;;;;32.50;26.70;;;;;;;13.47;73.11;99522.03;222166;1293;22561;-83
2023/04/09 13:05:20;;;;;;;26.70;22.80;;;;;;;13.65;72.72;99516.49;221340;1303;22677;-83
2023/04/09 13:10:25;;;;;;;24.00;20.80;;;;;;;13.65;72.12;99520.14;221287;1305;24308;-83
2023/04/09 13:15:30;;;;;;;22.50;17.50;;;;;;;13.74;71.41;99520.59;221410;1305;22602;-84
2023/04/09 13:20:32;;;;;;;21.00;18.80;;;;;;;13.75;70.53;99515.52;221376;1298;22577;-84
2023/04/09 13:25:34;;;;;;;23.50;20.10;;;;;;;13.84;70.66;99515.20;221110;1295;22749;-84
2023/04/09 13:30:36;;;;;;;22.00;19.20;;;;;;;14.01;70.50;99513.23;221457;1304;22637;-84
2023/04/09 13:35:39;;;;;;;23.80;19.60;;;;;;;14.14;69.87;99508.05;221704;1301;22555;-84
2023/04/09 13:40:42;;;;;;;19.90;17.80;;;;;;;14.20;69.69;99504.83;222278;1299;25447;-85
2023/04/09 13:45:44;;;;;;;19.90;17.80;;;;;;;14.21;69.09;99505.54;222148;1292;23011;-84
2023/04/09 13:50:47;;;;;;;20.50;17.70;;;;;;;14.15;68.99;99500.05;222055;1301;23809;-85
2023/04/09 13:55:49;;;;;;;24.00;20.60;;;;;;;13.93;68.23;99499.80;222061;1301;22558;-83
2023/04/09 14:00:51;;;;;;;21.30;19.10;;;;;;;13.71;68.62;99498.73;222002;1301;22576;-84
2023/04/09 14:05:54;;;;;;;21.90;19.60;;;;;;;13.52;68.58;99494.59;222084;1286;22575;-84
2023/04/09 14:10:56;;;;;;;21.80;17.40;;;;;;;13.32;68.80;99495.57;222006;1301;22565;-83
2023/04/09 14:15:58;;;;;;;19.60;17.50;;;;;;;13.17;68.74;99496.73;222276;1301;22545;-85
2023/04/09 14:21:02;;;;;;;22.50;17.60;;;;;;;13.01;68.68;99492.91;222101;1301;22654;-83
2023/04/09 14:26:05;;;;;;;18.70;16.20;;;;;;;12.85;68.76;99491.27;222180;1301;22606;-82
2023/04/09 14:31:07;;;;;;;18.70;16.10;;;;;;;12.59;68.78;99486.95;222201;1299;22554;-84
2023/04/09 14:36:09;;;;;;;19.20;15.50;;;;;;;12.30;69.10;99489.64;222290;1299;24273;-82
2023/04/09 14:41:13;;;;;;;17.40;15.60;;;;;;;12.06;69.55;99486.90;222203;1301;22560;-83
2023/04/09 14:46:15;;;;;;;21.00;17.00;;;;;;;11.86;70.01;99483.97;222203;1301;22557;-84
2023/04/09 14:51:18;;;;;;;19.80;17.50;;;;;;;11.69;70.54;99486.33;222117;1285;22582;-84
2023/04/09 14:56:20;;;;;;;19.70;17.20;;;;;;;11.55;70.98;99485.75;222175;1301;22580;-83
2023/04/09 15:01:22;;;;;;;13.60;11.80;;;;;;;11.47;71.51;99481.98;221958;1301;25427;-82
2023/04/09 15:06:26;;;;;;;15.60;13.00;;;;;;;11.35;70.55;99484.73;222305;1301;22558;-83
2023/04/09 15:11:29;;;;;;;14.30;12.80;;;;;;;11.24;70.31;99482.09;222215;1301;22568;-84
2023/04/09 15:16:35;;;;;;;17.50;15.70;;;;;;;11.17;70.70;99478.95;222315;1293;22551;-83
2023/04/09 15:21:38;;;;;;;15.50;12.30;;;;;;;11.03;70.46;99479.46;222309;1296;22588;-81
2023/04/09 15:26:40;;;;;;;14.30;12.80;;;;;;;10.89;70.54;99476.42;222234;1296;22569;-84
2023/04/09 15:31:42;;;;;;;17.70;15.40;;;;;;;10.83;71.21;99486.63;222127;1301;25057;-82
2023/04/09 15:36:45;;;;;;;17.40;15.50;;;;;;;10.75;71.53;99486.27;222206;1296;22559;-83
2023/04/09 15:41:47;;;;;;;22.10;18.10;;;;;;;10.69;72.32;99487.33;222058;1299;22557;-84
2023/04/09 15:46:49;;;;;;;22.00;19.60;;;;;;;10.57;72.72;99485.48;222138;1300;22549;-83
2023/04/09 15:51:52;;;;;;;22.90;18.80;;;;;;;10.50;73.23;99482.08;222294;1301;24835;-83
2023/04/09 15:56:54;;;;;;;19.60;17.50;;;;;;;10.44;73.39;99484.98;222290;1301;22546;-83
2023/04/09 16:01:56;;;;;;;20.30;16.90;;;;;;;10.36;73.30;99486.05;222225;1300;22577;-84
2023/04/09 16:07:01;;;;;;;19.20;15.80;;;;;;;10.36;73.49;99487.46;222225;1290;22655;-83
2023/04/09 16:12:03;;;;;;;15.20;13.00;;;;;;;10.36;72.96;99486.65;222240;1299;25456;-83
2023/04/09 16:17:05;;;;;;;14.60;13.00;;;;;;;10.33;72.67;99488.96;222165;1301;23028;-82
2023/04/09 16:22:08;;;;;;;13.50;12.10;;;;;;;10.23;72.29;99496.34;222148;1301;22557;-83
2023/04/09 16:27:12;;;;;;;16.40;13.30;;;;;;;10.13;72.35;99496.35;222279;1289;22604;-82
2023/04/09 16:32:15;;;;;;;17.50;15.60;;;;;;;10.01;72.92;99498.78;222297;1301;22748;-86
2023/04/09 16:37:19;;;;;;;20.80;16.90;;;;;;;9.87;73.07;99501.33;222268;1301;22546;-84
2023/04/09 16:42:21;;;;;;;21.70;18.50;;;;;;;9.72;73.97;99500.94;222071;1301;22548;-83
2023/04/09 16:47:23;;;;;;;24.60;20.70;;;;;;;9.58;74.41;99502.48;222145;1301;22600;-84
2023/04/09 16:52:29;;;;;;;24.60;21.40;;;;;;;9.45;75.07;99502.34;222176;1301;22559;-82
2023/04/09 16:57:31;;;;;;;25.80;22.10;;;;;;;9.33;75.56;99505.32;222230;1301;22544;-81
2023/04/09 17:02:35;;;;;;;27.10;22.60;;;;;;;9.23;76.04;99510.33;222008;1301;22801;-83
2023/04/09 17:07:38;;;;;;;29.20;24.10;;;;;;;9.11;76.29;99518.21;222464;1280;22564;-82
2023/04/09 17:12:41;;;;;;;32.80;26.40;;;;;;;8.99;76.58;99516.73;222294;1301;22555;-83
2023/04/09 17:17:44;;;;;;;34.70;26.90;;;;;;;8.89;76.87;99526.34;222043;1301;22576;-83
2023/04/09 17:22:47;;;;;;;37.60;29.60;;;;;;;8.81;77.27;99529.98;222195;1301;22567;-83
2023/04/09 17:27:49;;;;;;;42.80;32.80;;;;;;;8.74;77.75;99534.42;222216;1290;22590;-83
2023/04/09 17:32:51;;;;;;;42.80;31.90;;;;;;;8.67;77.92;99545.97;221974;1301;22570;-84
2023/04/09 17:37:53;;;;;;;44.90;33.10;;;;;;;8.59;78.19;99552.41;222191;1299;22587;-83
2023/04/09 17:42:57;;;;;;;46.20;32.80;;;;;;;8.50;78.36;99562.69;222276;1301;22507;-86
2023/04/09 17:47:59;;;;;;;45.30;33.60;;;;;;;8.41;78.89;99566.89;222171;1301;22570;-84
2023/04/09 17:53:01;;;;;;;45.80;34.90;;;;;;;8.32;78.74;99574.98;222164;1301;22583;-83
2023/04/09 17:58:03;;;;;;;48.20;34.00;;;;;;;8.25;79.05;99581.55;222002;1301;22559;-82
2023/04/09 18:03:05;;;;;;;47.90;33.40;;;;;;;8.17;79.76;99586.85;222253;1296;24221;-82
2023/04/09 18:08:08;;;;;;;51.10;37.10;;;;;;;8.11;79.86;99587.99;221953;1301;22546;-84
2023/04/09 18:13:10;;;;;;;46.70;34.70;;;;;;;8.07;80.00;99593.48;222013;1301;22546;-82
2023/04/09 18:18:12;;;;;;;49.80;35.50;;;;;;;8.02;80.28;99590.84;222207;1301;23673;-82
2023/04/09 18:23:14;;;;;;;50.20;35.60;;;;;;;7.97;80.19;99596.92;222132;1298;22554;-83
2023/04/09 18:28:17;;;;;;;52.60;36.00;;;;;;;7.93;80.21;99604.48;222158;1289;22582;-83
2023/04/09 18:33:19;;;;;;;52.30;36.10;;;;;;;7.91;80.48;99608.06;222210;1301;22560;-83
2023/04/09 18:38:21;;;;;;;46.50;33.50;;;;;;;7.88;80.50;99612.58;222220;1283;22856;-83
2023/04/09 18:43:24;;;;;;;53.40;37.40;;;;;;;7.84;80.47;99619.63;222229;1299;22631;-83
2023/04/09 18:48:26;;;;;;;50.70;35.80;;;;;;;7.82;80.80;99621.94;222253;1296;22558;-83
2023/04/09 18:53:30;;;;;;;52.00;37.50;;;;;;;7.78;80.84;99627.16;222200;1287;25356;-82
2023/04/09 18:58:32;;;;;;;49.90;36.60;;;;;;;7.76;81.23;99625.68;222196;1301;22574;-83
2023/04/09 19:03:35;;;;;;;52.80;36.40;;;;;;;7.71;81.12;99624.26;222188;1301;24282;-84
2023/04/09 19:08:38;;;;;;;55.70;38.10;;;;;;;7.66;81.00;99630.50;222032;1301;22597;-84
2023/04/09 19:13:40;;;;;;;50.50;37.00;;;;;;;7.61;81.42;99624.45;222227;1301;22561;-82
2023/04/09 19:18:42;;;;;;;56.30;38.10;;;;;;;7.55;81.58;99626.98;222237;1299;26239;-84
2023/04/09 19:23:45;;;;;;;56.70;38.30;;;;;;;7.49;81.88;99622.52;222180;1301;23027;-84
2023/04/09 19:28:49;;;;;;;54.60;36.20;;;;;;;7.42;81.81;99618.66;222208;1301;22877;-84
2023/04/09 19:33:51;;;;;;;55.50;36.50;;;;;;;7.35;81.52;99619.44;222166;1301;22696;-83
2023/04/09 19:38:54;;;;;;;56.80;37.40;;;;;;;7.30;82.09;99621.50;222152;1296;25358;-84
2023/04/09 19:43:57;;;;;;;52.70;35.40;;;;;;;7.25;81.98;99624.13;222175;1300;22716;-83
2023/04/09 19:48:59;;;;;;;56.50;36.70;;;;;;;7.20;81.97;99626.73;221981;1301;22552;-84
2023/04/09 19:54:02;;;;;;;53.00;36.00;;;;;;;7.15;82.44;99627.91;222167;1299;22570;-83
2023/04/09 19:59:04;;;;;;;63.80;40.90;;;;;;;7.10;82.59;99631.90;222228;1296;22635;-82
2023/04/09 20:04:08;;;;;;;58.00;37.40;;;;;;;7.05;82.46;99635.07;222219;1301;24204;-83
2023/04/09 20:09:13;;;;;;;59.60;37.70;;;;;;;7.05;82.64;99633.05;222188;1296;22610;-82
2023/04/09 20:14:15;;;;;;;61.60;38.20;;;;;;;7.03;82.80;99635.84;222202;1299;22572;-83
2023/04/09 20:19:18;;;;;;;56.90;36.60;;;;;;;6.99;82.74;99632.73;222462;1301;24374;-85
2023/04/09 20:24:23;;;;;;;56.80;36.40;;;;;;;6.95;82.85;99631.72;222195;1301;22567;-83
2023/04/09 20:29:26;;;;;;;56.30;37.20;;;;;;;6.91;82.69;99635.38;221722;1299;22582;-82
2023/04/09 20:34:28;;;;;;;58.30;37.80;;;;;;;6.88;82.86;99639.33;221883;1283;22549;-83
2023/04/09 20:39:30;;;;;;;62.30;38.20;;;;;;;6.87;82.91;99640.14;222076;1301;23753;-83
2023/04/09 20:44:32;;;;;;;58.00;36.30;;;;;;;6.86;83.24;99640.99;222164;1299;24955;-84
2023/04/09 20:49:34;;;;;;;61.90;39.20;;;;;;;6.84;83.35;99641.16;222178;1299;22972;-85
2023/04/09 20:54:38;;;;;;;66.50;41.10;;;;;;;6.82;83.71;99644.53;222163;1296;22564;-82
2023/04/09 20:59:40;;;;;;;60.70;39.30;;;;;;;6.80;83.39;99647.46;222215;1301;22742;-82
2023/04/09 21:04:42;;;;;;;65.20;39.50;;;;;;;6.79;83.92;99644.45;222211;1301;22553;-81
2023/04/09 21:09:46;;;;;;;61.20;39.00;;;;;;;6.78;83.71;99645.20;222158;1299;22536;-82
2023/04/09 21:14:53;;;;;;;63.20;39.40;;;;;;;6.78;83.93;99647.00;222175;1301;22555;-83
2023/04/09 21:19:55;;;;;;;65.20;40.40;;;;;;;6.77;83.75;99651.31;222165;1301;22572;-81
2023/04/09 21:24:57;;;;;;;67.00;41.80;;;;;;;6.75;83.95;99651.67;221923;1300;22566;-83
2023/04/09 21:29:59;;;;;;;66.20;41.90;;;;;;;6.76;84.08;99652.48;222140;1301;22553;-84
2023/04/09 21:35:01;;;;;;;64.90;41.00;;;;;;;6.76;84.40;99651.86;222161;1301;22545;-87
2023/04/09 21:40:04;;;;;;;68.60;41.40;;;;;;;6.76;84.34;99652.22;222143;1301;25467;-84
2023/04/09 21:45:08;;;;;;;69.60;41.90;;;;;;;6.77;84.27;99653.94;222190;1301;22552;-83
2023/04/09 21:50:12;;;;;;;66.10;41.40;;;;;;;6.77;84.34;99656.15;222183;1301;24000;-83
2023/04/09 21:55:20;;;;;;;64.60;41.40;;;;;;;6.77;84.48;99654.99;222198;1299;22672;-82
2023/04/09 22:00:22;;;;;;;69.10;41.40;;;;;;;6.76;84.44;99657.20;222218;1296;22553;-83
2023/04/09 22:05:25;;;;;;;67.20;41.90;;;;;;;6.75;84.66;99654.93;222199;1296;22560;-82
2023/04/09 22:10:27;;;;;;;68.00;43.00;;;;;;;6.75;84.91;99657.23;222164;1301;22545;-83
2023/04/09 22:15:29;;;;;;;68.50;41.80;;;;;;;6.75;84.78;99657.45;222166;1301;22579;-83
2023/04/09 22:20:31;;;;;;;70.10;41.40;;;;;;;6.76;84.72;99661.38;221856;1292;407658;-83
2023/04/09 22:25:34;;;;;;;70.90;43.50;;;;;;;6.75;84.88;99656.71;221937;1301;22577;-84
2023/04/09 22:30:36;;;;;;;66.40;42.80;;;;;;;6.73;84.72;99657.04;222227;1301;22548;-84
2023/04/09 22:35:38;;;;;;;66.40;42.70;;;;;;;6.72;85.45;99651.17;222159;1301;22551;-83
2023/04/09 22:40:40;;;;;;;69.90;40.80;;;;;;;6.71;85.38;99649.83;222152;1301;24268;-83
2023/04/09 22:45:50;;;;;;;66.60;41.40;;;;;;;6.68;84.97;99653.09;222240;1299;22570;-83
2023/04/09 22:50:53;;;;;;;69.60;43.60;;;;;;;6.64;85.44;99650.33;222485;1301;22567;-83
2023/04/09 22:55:57;;;;;;;72.30;42.60;;;;;;;6.63;85.35;99656.80;222179;1301;22551;-83
2023/04/09 23:01:00;;;;;;;62.10;39.40;;;;;;;6.62;85.49;99655.95;222194;1299;22549;-84
2023/04/09 23:06:03;;;;;;;69.10;42.50;;;;;;;6.64;85.71;99657.56;222233;1301;22577;-83
2023/04/09 23:11:06;;;;;;;71.00;43.20;;;;;;;6.65;85.86;99655.02;222481;1297;23995;-83